createdAt,value
2017-11-25T00:01:58.909Z,6.40
2017-11-25T00:04:25.966Z,6.30
2017-11-25T00:06:52.953Z,6.40
2017-11-25T00:09:19.751Z,6.40
2017-11-25T00:11:45.996Z,6.30
2017-11-25T00:14:12.279Z,6.40
2017-11-25T00:16:38.554Z,6.40
2017-11-25T00:19:05.617Z,6.40
2017-11-25T00:21:32.021Z,6.40
2017-11-25T00:23:59.267Z,6.40
2017-11-25T00:26:26.291Z,6.40
2017-11-25T00:28:52.610Z,6.40
2017-11-25T00:31:18.873Z,6.40
2017-11-25T00:33:45.119Z,6.40
2017-11-25T00:36:12.099Z,6.40
2017-11-25T00:38:38.345Z,6.30
2017-11-25T00:41:04.619Z,6.40
2017-11-25T00:43:31.621Z,6.30
2017-11-25T00:45:58.007Z,6.30
2017-11-25T00:48:24.532Z,6.30
2017-11-25T00:50:50.847Z,6.30
2017-11-25T00:53:17.869Z,6.30
2017-11-25T00:55:44.132Z,6.30
2017-11-25T00:58:10.373Z,6.30
2017-11-25T01:00:36.678Z,6.30
2017-11-25T01:03:02.946Z,6.30
2017-11-25T01:05:29.221Z,6.30
2017-11-25T01:07:55.570Z,6.30
2017-11-25T01:10:21.951Z,6.30
2017-11-25T01:12:48.206Z,6.30
2017-11-25T01:15:14.479Z,6.20
2017-11-25T01:17:40.774Z,6.20
2017-11-25T01:20:07.054Z,6.20
2017-11-25T01:22:33.290Z,6.20
2017-11-25T01:24:59.547Z,6.20
2017-11-25T01:27:25.781Z,6.10
2017-11-25T01:29:52.047Z,6.10
2017-11-25T01:32:19.062Z,6.10
2017-11-25T01:34:46.095Z,6.10
2017-11-25T01:37:13.311Z,6.10
2017-11-25T01:39:39.634Z,6.10
2017-11-25T01:42:05.895Z,6.10
2017-11-25T01:44:32.188Z,6.10
2017-11-25T01:46:58.524Z,6.10
2017-11-25T01:49:24.760Z,6.10
2017-11-25T01:51:51.040Z,6.10
2017-11-25T01:54:17.296Z,6.10
2017-11-25T01:56:44.321Z,6.10
2017-11-25T01:59:10.616Z,6.10
2017-11-25T02:01:37.001Z,6.20
2017-11-25T02:04:04.134Z,6.10
2017-11-25T02:06:31.216Z,6.10
2017-11-25T02:08:57.465Z,6.10
2017-11-25T02:11:23.735Z,6.10
2017-11-25T02:13:50.008Z,6.10
2017-11-25T02:16:17.526Z,6.10
2017-11-25T02:18:43.884Z,6.00
2017-11-25T02:21:10.706Z,6.00
2017-11-25T02:23:37.915Z,6.10
2017-11-25T02:26:04.403Z,6.10
2017-11-25T02:28:31.735Z,6.10
2017-11-25T02:30:58.775Z,6.20
2017-11-25T02:33:25.057Z,6.10
2017-11-25T02:35:51.312Z,6.10
2017-11-25T02:38:17.572Z,6.20
2017-11-25T02:40:46.703Z,6.20
2017-11-25T02:43:12.986Z,6.20
2017-11-25T02:45:39.257Z,6.20
2017-11-25T02:48:05.548Z,6.20
2017-11-25T02:50:31.847Z,6.20
2017-11-25T02:52:58.126Z,6.20
2017-11-25T02:55:25.192Z,6.20
2017-11-25T02:57:51.497Z,6.20
2017-11-25T03:00:18.525Z,6.20
2017-11-25T03:02:44.763Z,6.20
2017-11-25T03:05:11.027Z,6.20
2017-11-25T03:07:37.249Z,6.20
2017-11-25T03:10:03.575Z,6.20
2017-11-25T03:12:29.847Z,6.20
2017-11-25T03:14:56.149Z,6.20
2017-11-25T03:17:22.398Z,6.20
2017-11-25T03:19:49.196Z,6.20
2017-11-25T03:22:15.572Z,6.30
2017-11-25T03:24:41.916Z,6.30
2017-11-25T03:27:08.222Z,6.30
2017-11-25T03:29:34.593Z,6.20
2017-11-25T03:32:01.675Z,6.20
2017-11-25T03:34:27.968Z,6.20
2017-11-25T03:36:54.297Z,6.20
2017-11-25T03:39:20.673Z,6.20
2017-11-25T03:41:46.972Z,6.30
2017-11-25T03:44:14.024Z,6.30
2017-11-25T03:46:41.027Z,6.40
2017-11-25T03:49:07.299Z,6.40
2017-11-25T03:51:34.343Z,6.40
2017-11-25T03:54:01.340Z,6.30
2017-11-25T03:56:27.639Z,6.30
2017-11-25T03:58:55.335Z,6.40
2017-11-25T04:01:21.709Z,6.30
2017-11-25T04:03:48.779Z,6.30
2017-11-25T04:06:15.015Z,6.40
2017-11-25T04:08:41.624Z,6.30
2017-11-25T04:11:07.970Z,6.30
2017-11-25T04:13:34.217Z,6.30
2017-11-25T04:16:06.935Z,6.30
2017-11-25T04:18:33.322Z,6.30
2017-11-25T04:20:59.606Z,6.30
2017-11-25T04:23:26.823Z,6.30
2017-11-25T04:25:53.842Z,6.30
2017-11-25T04:28:20.138Z,6.20
2017-11-25T04:30:46.824Z,6.20
2017-11-25T04:33:13.253Z,6.20
2017-11-25T04:35:39.470Z,6.20
2017-11-25T04:38:07.339Z,6.20
2017-11-25T04:40:34.184Z,6.20
2017-11-25T04:43:00.457Z,6.20
2017-11-25T04:45:26.696Z,6.20
2017-11-25T04:47:53.129Z,6.20
2017-11-25T04:50:20.190Z,6.20
2017-11-25T04:52:47.267Z,6.20
2017-11-25T04:55:13.505Z,6.20
2017-11-25T04:57:40.810Z,6.10
2017-11-25T05:00:07.839Z,6.00
2017-11-25T05:02:34.224Z,6.00
2017-11-25T05:05:00.564Z,6.00
2017-11-25T05:07:28.094Z,6.00
2017-11-25T05:09:56.124Z,6.00
2017-11-25T05:12:22.469Z,6.00
2017-11-25T05:14:49.648Z,6.00
2017-11-25T05:17:18.268Z,6.00
2017-11-25T05:19:44.627Z,6.00
2017-11-25T05:22:10.944Z,6.00
2017-11-25T05:24:37.214Z,6.00
2017-11-25T05:27:04.365Z,6.00
2017-11-25T05:29:30.792Z,6.00
2017-11-25T05:31:57.204Z,6.00
2017-11-25T05:34:24.186Z,6.00
2017-11-25T05:36:50.462Z,6.00
2017-11-25T05:39:16.753Z,6.00
2017-11-25T05:41:43.101Z,6.00
2017-11-25T05:44:09.355Z,6.10
2017-11-25T05:46:35.572Z,6.00
2017-11-25T05:49:02.014Z,6.00
2017-11-25T05:51:28.348Z,6.10
2017-11-25T05:53:54.642Z,6.10
2017-11-25T05:56:20.899Z,6.10
2017-11-25T05:58:47.177Z,6.00
2017-11-25T06:01:13.425Z,6.00
2017-11-25T06:03:39.705Z,5.90
2017-11-25T06:06:06.755Z,6.00
2017-11-25T06:08:33.759Z,5.90
2017-11-25T06:11:00.031Z,6.00
2017-11-25T06:13:27.028Z,6.00
2017-11-25T06:15:53.305Z,6.00
2017-11-25T06:18:20.359Z,6.00
2017-11-25T06:20:47.335Z,6.00
2017-11-25T06:23:13.581Z,5.90
2017-11-25T06:25:39.917Z,5.90
2017-11-25T06:28:06.202Z,5.90
2017-11-25T06:30:32.480Z,5.90
2017-11-25T06:32:58.752Z,5.80
2017-11-25T06:35:27.688Z,5.80
2017-11-25T06:37:54.010Z,5.80
2017-11-25T06:40:20.315Z,5.80
2017-11-25T06:42:46.646Z,5.80
2017-11-25T06:45:13.613Z,5.90
2017-11-25T06:47:39.989Z,5.90
2017-11-25T06:50:07.718Z,5.90
2017-11-25T06:52:33.992Z,5.90
2017-11-25T06:55:01.019Z,5.90
2017-11-25T06:57:27.235Z,5.90
2017-11-25T06:59:53.531Z,5.90
2017-11-25T07:02:19.752Z,5.90
2017-11-25T07:04:46.019Z,5.90
2017-11-25T07:07:12.274Z,5.90
2017-11-25T07:09:38.511Z,5.90
2017-11-25T07:12:04.730Z,5.90
2017-11-25T07:14:31.067Z,5.90
2017-11-25T07:17:04.972Z,5.90
2017-11-25T07:19:32.014Z,5.80
2017-11-25T07:21:59.070Z,5.80
2017-11-25T07:24:26.160Z,5.80
2017-11-25T07:26:52.792Z,5.80
2017-11-25T07:29:19.083Z,5.90
2017-11-25T07:31:46.084Z,5.90
2017-11-25T07:34:12.456Z,5.90
2017-11-25T07:36:39.469Z,5.90
2017-11-25T07:39:05.760Z,5.90
2017-11-25T07:41:33.172Z,5.90
2017-11-25T07:44:00.241Z,5.90
2017-11-25T07:46:27.330Z,5.90
2017-11-25T07:48:53.692Z,5.90
2017-11-25T07:51:20.038Z,5.90
2017-11-25T07:53:47.247Z,5.80
2017-11-25T07:56:13.688Z,5.80
2017-11-25T07:58:39.999Z,5.90
2017-11-25T08:01:06.274Z,5.90
2017-11-25T08:03:33.102Z,5.90
2017-11-25T08:06:01.489Z,6.00
2017-11-25T08:08:30.080Z,6.00
2017-11-25T08:10:58.593Z,5.90
2017-11-25T08:13:27.289Z,6.00
2017-11-25T08:15:53.550Z,5.90
2017-11-25T08:18:19.945Z,5.90
2017-11-25T08:20:46.247Z,5.90
2017-11-25T08:23:12.652Z,5.90
2017-11-25T08:25:39.712Z,5.90
2017-11-25T08:28:05.930Z,5.90
2017-11-25T08:30:33.022Z,5.90
2017-11-25T08:33:00.032Z,5.90
2017-11-25T08:35:26.294Z,5.90
2017-11-25T08:37:52.594Z,5.90
2017-11-25T08:40:19.334Z,6.00
2017-11-25T08:42:47.310Z,6.00
2017-11-25T08:45:13.589Z,6.00
2017-11-25T08:47:39.948Z,6.00
2017-11-25T08:50:09.147Z,6.00
2017-11-25T08:52:36.239Z,6.10
2017-11-25T08:55:03.237Z,6.10
2017-11-25T08:57:30.855Z,6.10
2017-11-25T08:59:57.372Z,6.10
2017-11-25T09:02:24.407Z,6.20
2017-11-25T09:04:54.312Z,6.30
2017-11-25T09:10:05.131Z,6.20
2017-11-25T09:12:31.785Z,6.20
2017-11-25T09:14:59.311Z,6.10
2017-11-25T09:17:27.008Z,6.10
2017-11-25T09:19:53.258Z,6.10
2017-11-25T09:22:19.554Z,6.00
2017-11-25T09:24:45.940Z,6.00
2017-11-25T09:27:14.296Z,6.00
2017-11-25T09:29:41.312Z,5.90
2017-11-25T09:32:08.653Z,5.80
2017-11-25T09:34:35.095Z,5.80
2017-11-25T09:37:01.628Z,5.80
2017-11-25T09:39:28.805Z,5.70
2017-11-25T09:41:56.336Z,5.70
2017-11-25T09:44:22.685Z,5.60
2017-11-25T09:46:56.039Z,5.60
2017-11-25T09:49:23.085Z,5.70
2017-11-25T09:51:50.364Z,5.60
2017-11-25T09:54:16.727Z,5.60
2017-11-25T09:56:43.053Z,5.60
2017-11-25T09:59:09.339Z,5.60
2017-11-25T10:01:36.509Z,5.70
2017-11-25T10:04:02.969Z,5.60
2017-11-25T10:06:30.123Z,5.60
2017-11-25T10:08:57.349Z,5.60
2017-11-25T10:11:24.251Z,5.60
2017-11-25T10:13:50.756Z,5.60
2017-11-25T10:16:17.205Z,5.50
2017-11-25T10:18:43.562Z,5.50
2017-11-25T10:21:10.630Z,5.50
2017-11-25T10:23:36.854Z,5.50
2017-11-25T10:26:03.091Z,5.50
2017-11-25T10:28:29.604Z,5.50
2017-11-25T10:30:55.822Z,5.50
2017-11-25T10:33:22.915Z,5.40
2017-11-25T10:35:49.345Z,5.40
2017-11-25T10:38:15.620Z,5.40
2017-11-25T10:40:42.671Z,5.50
2017-11-25T10:43:09.787Z,5.40
2017-11-25T10:45:36.120Z,5.40
2017-11-25T10:48:02.495Z,5.40
2017-11-25T10:50:28.868Z,5.40
2017-11-25T10:52:55.243Z,5.40
2017-11-25T10:55:21.596Z,5.30
2017-11-25T10:57:47.959Z,5.30
2017-11-25T11:00:14.271Z,5.30
2017-11-25T11:02:40.532Z,5.20
2017-11-25T11:05:06.899Z,5.20
2017-11-25T11:07:34.827Z,5.00
2017-11-25T11:10:01.159Z,5.00
2017-11-25T11:12:27.510Z,4.90
2017-11-25T11:14:53.756Z,4.80
2017-11-25T11:17:20.152Z,4.70
2017-11-25T11:19:46.429Z,4.60
2017-11-25T11:22:12.706Z,4.50
2017-11-25T11:24:38.932Z,4.50
2017-11-25T11:27:05.190Z,4.40
2017-11-25T11:29:32.226Z,4.40
2017-11-25T11:31:59.655Z,4.30
2017-11-25T11:34:26.009Z,4.30
2017-11-25T11:36:52.714Z,4.20
2017-11-25T11:39:22.306Z,4.20
2017-11-25T11:41:48.886Z,4.10
2017-11-25T11:44:19.640Z,4.10
2017-11-25T11:46:52.548Z,4.00
2017-11-25T11:49:21.049Z,4.00
2017-11-25T11:51:47.409Z,4.00
2017-11-25T11:54:13.711Z,3.90
2017-11-25T11:56:40.031Z,3.90
2017-11-25T11:59:07.106Z,3.80
2017-11-25T12:01:33.399Z,3.80
2017-11-25T12:03:59.701Z,3.90
2017-11-25T12:06:26.053Z,3.90
2017-11-25T12:08:52.451Z,3.90
2017-11-25T12:11:19.476Z,3.80
2017-11-25T12:13:46.536Z,3.80
2017-11-25T12:16:12.952Z,3.80
2017-11-25T12:18:39.196Z,3.80
2017-11-25T12:21:05.414Z,3.80
2017-11-25T12:23:31.653Z,3.80
2017-11-25T12:25:57.866Z,3.70
2017-11-25T12:28:24.085Z,3.70
2017-11-25T12:30:50.347Z,3.60
2017-11-25T12:33:16.648Z,3.70
2017-11-25T12:35:42.853Z,3.70
2017-11-25T12:38:09.189Z,3.70
2017-11-25T12:40:37.300Z,3.70
2017-11-25T12:43:10.755Z,3.70
2017-11-25T12:45:37.040Z,3.80
2017-11-25T12:48:04.052Z,3.70
2017-11-25T12:50:30.367Z,3.70
2017-11-25T12:52:56.613Z,3.70
2017-11-25T12:55:22.839Z,3.70
2017-11-25T12:57:49.206Z,3.80
2017-11-25T13:00:16.304Z,3.80
2017-11-25T13:02:42.550Z,3.80
2017-11-25T13:05:08.776Z,3.80
2017-11-25T13:07:35.060Z,3.80
2017-11-25T13:10:01.370Z,3.70
2017-11-25T13:12:28.401Z,3.60
2017-11-25T13:14:54.704Z,3.60
2017-11-25T13:17:21.036Z,3.70
2017-11-25T13:19:47.291Z,3.60
2017-11-25T13:22:14.539Z,3.60
2017-11-25T13:24:43.329Z,3.60
2017-11-25T13:27:10.291Z,3.60
2017-11-25T13:29:36.618Z,3.60
2017-11-25T13:32:03.649Z,3.50
2017-11-25T13:34:30.674Z,3.50
2017-11-25T13:36:56.937Z,3.50
2017-11-25T13:39:23.175Z,3.50
2017-11-25T13:41:49.763Z,3.50
2017-11-25T13:44:15.990Z,3.50
2017-11-25T13:46:42.299Z,3.50
2017-11-25T13:49:08.535Z,3.40
2017-11-25T13:51:34.824Z,3.50
2017-11-25T13:54:01.841Z,3.50
2017-11-25T13:56:28.140Z,3.50
2017-11-25T13:58:55.380Z,3.50
2017-11-25T14:01:21.680Z,3.50
2017-11-25T14:03:47.961Z,3.50
2017-11-25T14:06:16.877Z,3.40
2017-11-25T14:08:43.912Z,3.30
2017-11-25T14:11:12.012Z,3.30
2017-11-25T14:13:39.281Z,3.40
2017-11-25T14:16:05.606Z,3.40
2017-11-25T14:18:33.109Z,3.40
2017-11-25T14:20:59.360Z,3.40
2017-11-25T14:23:26.163Z,3.30
2017-11-25T14:25:52.630Z,3.30
2017-11-25T14:28:18.868Z,3.30
2017-11-25T14:30:45.148Z,3.20
2017-11-25T14:33:11.533Z,3.20
2017-11-25T14:35:42.414Z,3.00
2017-11-25T14:38:19.237Z,3.00
2017-11-25T14:40:48.838Z,3.00
2017-11-25T14:43:15.335Z,3.10
2017-11-25T14:45:41.982Z,3.10
2017-11-25T14:48:08.368Z,3.10
2017-11-25T14:50:34.732Z,3.10
2017-11-25T14:53:02.257Z,3.00
2017-11-25T14:55:28.564Z,3.10
2017-11-25T14:57:55.007Z,3.10
2017-11-25T15:00:22.038Z,3.00
2017-11-25T15:02:48.317Z,3.10
2017-11-25T15:05:14.721Z,3.10
2017-11-25T15:07:41.952Z,3.10
2017-11-25T15:10:08.389Z,3.10
2017-11-25T15:12:35.433Z,3.10
2017-11-25T15:15:01.658Z,3.10
2017-11-25T15:17:27.983Z,3.10
2017-11-25T15:19:54.260Z,3.10
2017-11-25T15:22:20.555Z,3.10
2017-11-25T15:24:48.380Z,3.10
2017-11-25T15:27:14.645Z,3.20
2017-11-25T15:29:40.903Z,3.20
2017-11-25T15:32:07.916Z,3.30
2017-11-25T15:34:34.176Z,3.20
2017-11-25T15:37:02.308Z,3.20
2017-11-25T15:39:28.545Z,3.20
2017-11-25T15:41:56.427Z,3.30
2017-11-25T15:44:23.447Z,3.40
2017-11-25T15:46:49.730Z,3.30
2017-11-25T15:49:18.040Z,3.40
2017-11-25T15:51:44.349Z,3.40
2017-11-25T15:54:10.596Z,3.50
2017-11-25T15:56:36.845Z,3.60
2017-11-25T15:59:03.085Z,3.60
2017-11-25T16:01:29.307Z,3.60
2017-11-25T16:03:55.638Z,3.60
2017-11-25T16:06:21.915Z,3.60
2017-11-25T16:08:55.273Z,3.60
2017-11-25T16:11:22.273Z,3.70
2017-11-25T16:13:48.570Z,3.70
2017-11-25T16:16:15.584Z,3.70
2017-11-25T16:18:41.840Z,3.70
2017-11-25T16:21:08.954Z,3.80
2017-11-25T16:23:35.240Z,3.80
2017-11-25T16:26:01.471Z,3.80
2017-11-25T16:28:27.720Z,3.80
2017-11-25T16:30:54.011Z,3.80
2017-11-25T16:33:20.320Z,3.80
2017-11-25T16:35:47.292Z,3.80
2017-11-25T16:38:13.539Z,3.80
2017-11-25T16:40:41.561Z,3.90
2017-11-25T16:43:09.675Z,3.90
2017-11-25T16:45:37.537Z,3.90
2017-11-25T16:48:12.700Z,3.90
2017-11-25T16:50:40.005Z,3.90
2017-11-25T16:53:07.074Z,4.00
2017-11-25T16:55:33.666Z,4.00
2017-11-25T16:58:06.465Z,4.00
2017-11-25T17:00:32.783Z,4.00
2017-11-25T17:02:59.044Z,3.90
2017-11-25T17:05:25.297Z,4.00
2017-11-25T17:07:51.553Z,4.00
2017-11-25T17:10:17.931Z,4.00
2017-11-25T17:12:45.801Z,4.00
2017-11-25T17:15:16.989Z,4.10
2017-11-25T17:17:53.380Z,4.10
2017-11-25T17:20:20.346Z,4.10
2017-11-25T17:22:48.122Z,4.10
2017-11-25T17:25:15.510Z,4.10
2017-11-25T17:27:52.422Z,4.10
2017-11-25T17:30:18.638Z,4.10
2017-11-25T17:32:45.676Z,4.10
2017-11-25T17:35:11.911Z,4.10
2017-11-25T17:37:38.323Z,4.20
2017-11-25T17:40:04.549Z,4.20
2017-11-25T17:42:30.773Z,4.10
2017-11-25T17:44:57.115Z,4.10
2017-11-25T17:47:23.509Z,4.10
2017-11-25T17:49:49.767Z,4.20
2017-11-25T17:52:16.019Z,4.20
2017-11-25T17:54:43.161Z,4.20
2017-11-25T17:57:10.193Z,4.20
2017-11-25T17:59:36.952Z,4.20
2017-11-25T18:02:03.199Z,4.20
2017-11-25T18:04:30.156Z,4.30
2017-11-25T18:06:57.148Z,4.20
2017-11-25T18:09:37.753Z,4.30
2017-11-25T18:12:04.044Z,4.30
2017-11-25T18:14:30.276Z,4.30
2017-11-25T18:16:57.067Z,4.30
2017-11-25T18:19:24.861Z,4.30
2017-11-25T18:21:51.370Z,4.30
2017-11-25T18:24:17.643Z,4.40
2017-11-25T18:26:43.860Z,4.40
2017-11-25T18:29:11.894Z,4.40
2017-11-25T18:31:38.123Z,4.40
2017-11-25T18:34:04.594Z,4.40
2017-11-25T18:36:33.087Z,4.40
2017-11-25T18:39:15.207Z,4.40
2017-11-25T18:41:41.545Z,4.40
2017-11-25T18:44:08.507Z,4.40
2017-11-25T18:46:34.807Z,4.40
2017-11-25T18:49:02.924Z,4.40
2017-11-25T18:51:29.274Z,4.40
2017-11-25T18:53:55.519Z,4.40
2017-11-25T18:56:23.834Z,4.40
2017-11-25T18:58:53.400Z,4.40
2017-11-25T19:01:20.612Z,4.40
2017-11-25T19:03:46.905Z,4.30
2017-11-25T19:06:14.922Z,4.50
2017-11-25T19:08:45.223Z,4.40
2017-11-25T19:11:11.484Z,4.50
2017-11-25T19:13:37.852Z,4.40
2017-11-25T19:16:06.446Z,4.50
2017-11-25T19:18:33.438Z,4.40
2017-11-25T19:20:59.779Z,4.40
2017-11-25T19:23:26.228Z,4.50
2017-11-25T19:25:52.556Z,4.40
2017-11-25T19:28:18.757Z,4.40
2017-11-25T19:30:45.914Z,4.40
2017-11-25T19:33:12.231Z,4.50
2017-11-25T19:35:38.460Z,4.40
2017-11-25T19:38:08.102Z,4.40
2017-11-25T19:40:35.796Z,4.40
2017-11-25T19:43:04.356Z,4.50
2017-11-25T19:45:33.768Z,4.40
2017-11-25T19:48:09.711Z,4.50
2017-11-25T19:50:36.750Z,4.40
2017-11-25T19:53:03.091Z,4.50
2017-11-25T19:55:29.301Z,4.50
2017-11-25T19:57:55.706Z,4.40
2017-11-25T20:00:22.526Z,4.40
2017-11-25T20:02:59.452Z,4.40
2017-11-25T20:05:35.799Z,4.40
2017-11-25T20:08:02.171Z,4.40
2017-11-25T20:10:30.099Z,4.40
2017-11-25T20:12:56.418Z,4.40
2017-11-25T20:15:22.706Z,4.40
2017-11-25T20:17:50.022Z,4.40
2017-11-25T20:20:23.442Z,4.40
2017-11-25T20:22:49.840Z,4.50
2017-11-25T20:25:16.225Z,4.40
2017-11-25T20:27:42.846Z,4.40
2017-11-25T20:30:15.396Z,4.40
2017-11-25T20:32:42.931Z,4.30
2017-11-25T20:35:09.192Z,4.30
2017-11-25T20:40:33.000Z,4.30
2017-11-25T20:42:59.445Z,4.30
2017-11-25T20:45:26.625Z,4.20
2017-11-25T20:47:54.387Z,4.10
2017-11-25T20:50:21.292Z,4.10
2017-11-25T20:52:47.632Z,4.10
2017-11-25T20:55:15.842Z,4.10
2017-11-25T20:57:42.105Z,4.10
2017-11-25T21:00:08.766Z,4.10
2017-11-25T21:02:39.288Z,4.00
2017-11-25T21:05:05.849Z,4.00
2017-11-25T21:07:34.154Z,4.00
2017-11-25T21:10:01.077Z,4.00
2017-11-25T21:12:27.444Z,4.00
2017-11-25T21:14:53.719Z,3.90
2017-11-25T21:17:20.807Z,3.90
2017-11-25T21:19:49.217Z,3.90
2017-11-25T21:22:16.611Z,3.90
2017-11-25T21:24:43.802Z,3.90
2017-11-25T21:27:10.065Z,3.90
2017-11-25T21:29:36.360Z,3.90
2017-11-25T21:32:02.732Z,3.80
2017-11-25T21:34:29.894Z,3.80
2017-11-25T21:36:56.861Z,3.80
2017-11-25T21:39:23.125Z,3.80
2017-11-25T21:41:53.257Z,3.70
2017-11-25T21:44:19.547Z,3.60
2017-11-25T21:46:45.932Z,3.60
2017-11-25T21:49:14.165Z,3.50
2017-11-25T21:51:42.620Z,3.50
2017-11-25T21:54:08.989Z,3.40
2017-11-25T21:56:38.077Z,3.40
2017-11-25T21:59:13.225Z,3.40
2017-11-25T22:01:39.874Z,3.30
2017-11-25T22:04:06.161Z,3.20
2017-11-25T22:06:32.410Z,3.20
2017-11-25T22:08:59.945Z,3.20
2017-11-25T22:11:26.358Z,3.10
2017-11-25T22:13:52.727Z,3.10
2017-11-25T22:16:21.279Z,3.00
2017-11-25T22:18:52.291Z,2.90
2017-11-25T22:21:23.065Z,2.90
2017-11-25T22:23:49.641Z,2.90
2017-11-25T22:26:18.891Z,2.90
2017-11-25T22:28:45.123Z,2.90
2017-11-25T22:31:12.148Z,2.90
2017-11-25T22:33:39.134Z,2.90
2017-11-25T22:36:05.423Z,2.90
2017-11-25T22:38:31.708Z,2.90
2017-11-25T22:40:57.939Z,2.80
2017-11-25T22:43:24.298Z,2.80
2017-11-25T22:45:50.654Z,2.80
2017-11-25T22:48:17.688Z,2.80
2017-11-25T22:50:43.977Z,2.80
2017-11-25T22:53:10.219Z,2.80
2017-11-25T22:55:37.445Z,2.80
2017-11-25T22:58:04.712Z,2.70
2017-11-25T23:00:31.197Z,2.70
2017-11-25T23:02:57.440Z,2.70
2017-11-25T23:05:23.686Z,2.70
2017-11-25T23:07:49.948Z,2.70
2017-11-25T23:10:16.956Z,2.60
2017-11-25T23:12:43.168Z,2.60
2017-11-25T23:15:09.389Z,2.70
2017-11-25T23:17:35.709Z,2.70
2017-11-25T23:20:01.940Z,2.70
2017-11-25T23:22:28.321Z,2.60
2017-11-25T23:24:54.760Z,2.60
2017-11-25T23:27:21.079Z,2.60
2017-11-25T23:29:47.295Z,2.60
2017-11-25T23:32:13.567Z,2.60
2017-11-25T23:34:40.555Z,2.60
2017-11-25T23:37:06.783Z,2.60
2017-11-25T23:39:33.072Z,2.60
2017-11-25T23:42:00.043Z,2.70
2017-11-25T23:44:26.273Z,2.70
2017-11-25T23:46:52.522Z,2.60
2017-11-25T23:49:18.782Z,2.70
2017-11-25T23:51:45.054Z,2.70
2017-11-25T23:54:11.540Z,2.70
2017-11-25T23:56:37.964Z,2.80
2017-11-25T23:59:04.992Z,2.80
